sensor_id;sensor_type;location;lat;lon;timestamp;temperature;humidity
13707;DHT22;6925;47.816;13.072;2023-07-02T00:01:49;20.40;69.40
13707;DHT22;6925;47.816;13.072;2023-07-02T00:04:17;20.50;69.50
13707;DHT22;6925;47.816;13.072;2023-07-02T00:06:45;20.50;69.20
13707;DHT22;6925;47.816;13.072;2023-07-02T00:09:14;20.40;69.00
13707;DHT22;6925;47.816;13.072;2023-07-02T00:11:43;20.30;69.50
13707;DHT22;6925;47.816;13.072;2023-07-02T00:14:12;20.30;69.70
13707;DHT22;6925;47.816;13.072;2023-07-02T00:16:42;20.30;70.50
13707;DHT22;6925;47.816;13.072;2023-07-02T00:19:09;20.30;70.30
13707;DHT22;6925;47.816;13.072;2023-07-02T00:21:37;20.30;70.40
13707;DHT22;6925;47.816;13.072;2023-07-02T00:24:05;20.40;70.90
13707;DHT22;6925;47.816;13.072;2023-07-02T00:26:37;20.40;71.00
13707;DHT22;6925;47.816;13.072;2023-07-02T00:29:05;20.40;71.50
13707;DHT22;6925;47.816;13.072;2023-07-02T00:31:34;20.30;72.00
13707;DHT22;6925;47.816;13.072;2023-07-02T00:34:01;20.20;72.50
13707;DHT22;6925;47.816;13.072;2023-07-02T00:36:28;20.20;72.90
13707;DHT22;6925;47.816;13.072;2023-07-02T00:38:56;20.30;73.20
13707;DHT22;6925;47.816;13.072;2023-07-02T00:41:24;20.30;73.10
13707;DHT22;6925;47.816;13.072;2023-07-02T00:43:52;20.30;73.00
13707;DHT22;6925;47.816;13.072;2023-07-02T00:46:21;20.30;73.20
13707;DHT22;6925;47.816;13.072;2023-07-02T00:48:49;20.30;73.80
13707;DHT22;6925;47.816;13.072;2023-07-02T00:51:18;20.40;74.80
13707;DHT22;6925;47.816;13.072;2023-07-02T00:53:46;20.40;74.70
13707;DHT22;6925;47.816;13.072;2023-07-02T00:56:13;20.40;75.40
13707;DHT22;6925;47.816;13.072;2023-07-02T00:58:43;20.40;75.90
13707;DHT22;6925;47.816;13.072;2023-07-02T01:01:14;20.40;75.90
13707;DHT22;6925;47.816;13.072;2023-07-02T01:03:50;20.40;76.30
13707;DHT22;6925;47.816;13.072;2023-07-02T01:06:20;20.40;76.50
13707;DHT22;6925;47.816;13.072;2023-07-02T01:08:51;20.40;77.70
13707;DHT22;6925;47.816;13.072;2023-07-02T01:11:20;20.40;77.50
13707;DHT22;6925;47.816;13.072;2023-07-02T01:13:48;20.40;78.00
13707;DHT22;6925;47.816;13.072;2023-07-02T01:16:19;20.40;78.40
13707;DHT22;6925;47.816;13.072;2023-07-02T01:18:48;20.50;78.10
13707;DHT22;6925;47.816;13.072;2023-07-02T01:21:18;20.50;77.40
13707;DHT22;6925;47.816;13.072;2023-07-02T01:23:45;20.40;77.40
13707;DHT22;6925;47.816;13.072;2023-07-02T01:26:12;20.30;77.40
13707;DHT22;6925;47.816;13.072;2023-07-02T01:28:41;20.30;77.80
13707;DHT22;6925;47.816;13.072;2023-07-02T01:31:08;20.20;78.50
13707;DHT22;6925;47.816;13.072;2023-07-02T01:33:35;20.20;78.60
13707;DHT22;6925;47.816;13.072;2023-07-02T01:36:02;20.20;78.50
13707;DHT22;6925;47.816;13.072;2023-07-02T01:38:30;20.10;79.20
13707;DHT22;6925;47.816;13.072;2023-07-02T01:40:57;20.10;78.40
13707;DHT22;6925;47.816;13.072;2023-07-02T01:43:24;20.00;78.40
13707;DHT22;6925;47.816;13.072;2023-07-02T01:45:51;20.00;79.10
13707;DHT22;6925;47.816;13.072;2023-07-02T01:48:18;19.90;79.10
13707;DHT22;6925;47.816;13.072;2023-07-02T01:50:45;19.70;80.20
13707;DHT22;6925;47.816;13.072;2023-07-02T01:53:12;19.70;79.90
13707;DHT22;6925;47.816;13.072;2023-07-02T01:55:40;19.70;80.60
13707;DHT22;6925;47.816;13.072;2023-07-02T01:58:07;19.70;80.40
13707;DHT22;6925;47.816;13.072;2023-07-02T02:00:35;19.70;80.20
13707;DHT22;6925;47.816;13.072;2023-07-02T02:03:01;19.70;79.80
13707;DHT22;6925;47.816;13.072;2023-07-02T02:05:28;19.70;80.00
13707;DHT22;6925;47.816;13.072;2023-07-02T02:07:55;19.70;80.00
13707;DHT22;6925;47.816;13.072;2023-07-02T02:10:22;19.50;80.30
13707;DHT22;6925;47.816;13.072;2023-07-02T02:12:50;19.50;81.40
13707;DHT22;6925;47.816;13.072;2023-07-02T02:15:18;19.60;81.50
13707;DHT22;6925;47.816;13.072;2023-07-02T02:17:45;19.60;82.10
13707;DHT22;6925;47.816;13.072;2023-07-02T02:20:12;19.60;82.30
13707;DHT22;6925;47.816;13.072;2023-07-02T02:22:39;19.50;82.60
13707;DHT22;6925;47.816;13.072;2023-07-02T02:25:06;19.40;82.90
13707;DHT22;6925;47.816;13.072;2023-07-02T02:27:34;19.40;83.10
13707;DHT22;6925;47.816;13.072;2023-07-02T02:30:02;19.40;83.60
13707;DHT22;6925;47.816;13.072;2023-07-02T02:32:29;19.40;83.30
13707;DHT22;6925;47.816;13.072;2023-07-02T02:34:56;19.40;83.30
13707;DHT22;6925;47.816;13.072;2023-07-02T02:37:23;19.40;83.20
13707;DHT22;6925;47.816;13.072;2023-07-02T02:39:50;19.40;83.50
13707;DHT22;6925;47.816;13.072;2023-07-02T02:42:17;19.40;83.20
13707;DHT22;6925;47.816;13.072;2023-07-02T02:44:43;19.30;82.90
13707;DHT22;6925;47.816;13.072;2023-07-02T02:47:12;19.30;83.40
13707;DHT22;6925;47.816;13.072;2023-07-02T02:49:39;19.20;83.70
13707;DHT22;6925;47.816;13.072;2023-07-02T02:52:06;19.20;84.30
13707;DHT22;6925;47.816;13.072;2023-07-02T02:54:33;19.20;84.90
13707;DHT22;6925;47.816;13.072;2023-07-02T02:57:00;19.10;84.60
13707;DHT22;6925;47.816;13.072;2023-07-02T02:59:27;19.10;85.10
13707;DHT22;6925;47.816;13.072;2023-07-02T03:01:54;19.10;85.30
13707;DHT22;6925;47.816;13.072;2023-07-02T03:04:22;19.10;85.90
13707;DHT22;6925;47.816;13.072;2023-07-02T03:06:51;19.00;84.90
13707;DHT22;6925;47.816;13.072;2023-07-02T03:09:18;19.00;85.50
13707;DHT22;6925;47.816;13.072;2023-07-02T03:11:46;18.90;86.80
13707;DHT22;6925;47.816;13.072;2023-07-02T03:14:14;18.80;87.50
13707;DHT22;6925;47.816;13.072;2023-07-02T03:16:41;18.70;87.60
13707;DHT22;6925;47.816;13.072;2023-07-02T03:19:08;18.70;88.30
13707;DHT22;6925;47.816;13.072;2023-07-02T03:21:36;18.80;89.20
13707;DHT22;6925;47.816;13.072;2023-07-02T03:24:03;18.90;89.20
13707;DHT22;6925;47.816;13.072;2023-07-02T03:26:31;18.90;89.40
13707;DHT22;6925;47.816;13.072;2023-07-02T03:28:57;18.90;89.20
13707;DHT22;6925;47.816;13.072;2023-07-02T03:31:24;19.00;89.80
13707;DHT22;6925;47.816;13.072;2023-07-02T03:33:51;19.00;90.00
13707;DHT22;6925;47.816;13.072;2023-07-02T03:36:18;19.00;90.10
13707;DHT22;6925;47.816;13.072;2023-07-02T03:38:47;19.10;90.50
13707;DHT22;6925;47.816;13.072;2023-07-02T03:41:14;19.20;90.50
13707;DHT22;6925;47.816;13.072;2023-07-02T03:43:41;19.20;90.40
13707;DHT22;6925;47.816;13.072;2023-07-02T03:46:08;19.30;90.30
13707;DHT22;6925;47.816;13.072;2023-07-02T03:48:35;19.30;90.40
13707;DHT22;6925;47.816;13.072;2023-07-02T03:51:02;19.40;90.50
13707;DHT22;6925;47.816;13.072;2023-07-02T03:53:29;19.40;90.50
13707;DHT22;6925;47.816;13.072;2023-07-02T03:55:57;19.40;90.30
13707;DHT22;6925;47.816;13.072;2023-07-02T03:58:25;19.40;90.40
13707;DHT22;6925;47.816;13.072;2023-07-02T04:00:52;19.40;90.30
13707;DHT22;6925;47.816;13.072;2023-07-02T04:03:19;19.40;90.20
13707;DHT22;6925;47.816;13.072;2023-07-02T04:05:46;19.50;90.30
13707;DHT22;6925;47.816;13.072;2023-07-02T04:08:12;19.50;90.50
13707;DHT22;6925;47.816;13.072;2023-07-02T04:10:39;19.50;90.50
13707;DHT22;6925;47.816;13.072;2023-07-02T04:13:08;19.60;90.10
13707;DHT22;6925;47.816;13.072;2023-07-02T04:15:35;19.50;90.00
13707;DHT22;6925;47.816;13.072;2023-07-02T04:18:02;19.60;90.20
13707;DHT22;6925;47.816;13.072;2023-07-02T04:20:29;19.60;90.40
13707;DHT22;6925;47.816;13.072;2023-07-02T04:22:56;19.60;90.40
13707;DHT22;6925;47.816;13.072;2023-07-02T04:25:23;19.60;90.20
13707;DHT22;6925;47.816;13.072;2023-07-02T04:27:50;19.60;90.40
13707;DHT22;6925;47.816;13.072;2023-07-02T04:30:23;19.60;90.00
13707;DHT22;6925;47.816;13.072;2023-07-02T04:32:50;19.60;90.00
13707;DHT22;6925;47.816;13.072;2023-07-02T04:35:17;19.50;89.40
13707;DHT22;6925;47.816;13.072;2023-07-02T04:37:44;19.40;89.70
13707;DHT22;6925;47.816;13.072;2023-07-02T04:40:11;19.40;90.00
13707;DHT22;6925;47.816;13.072;2023-07-02T04:42:39;19.30;90.30
13707;DHT22;6925;47.816;13.072;2023-07-02T04:45:07;19.30;90.40
13707;DHT22;6925;47.816;13.072;2023-07-02T04:47:36;19.20;90.30
13707;DHT22;6925;47.816;13.072;2023-07-02T04:50:04;19.10;90.50
13707;DHT22;6925;47.816;13.072;2023-07-02T04:52:31;19.10;90.80
13707;DHT22;6925;47.816;13.072;2023-07-02T04:54:58;19.10;90.70
13707;DHT22;6925;47.816;13.072;2023-07-02T04:57:25;19.10;90.70
13707;DHT22;6925;47.816;13.072;2023-07-02T04:59:53;19.10;90.60
13707;DHT22;6925;47.816;13.072;2023-07-02T05:02:20;19.10;90.60
13707;DHT22;6925;47.816;13.072;2023-07-02T05:04:49;19.00;91.00
13707;DHT22;6925;47.816;13.072;2023-07-02T05:07:16;18.90;90.90
13707;DHT22;6925;47.816;13.072;2023-07-02T05:09:43;18.90;90.90
13707;DHT22;6925;47.816;13.072;2023-07-02T05:12:10;18.90;91.20
13707;DHT22;6925;47.816;13.072;2023-07-02T05:14:37;18.90;91.30
13707;DHT22;6925;47.816;13.072;2023-07-02T05:17:03;18.90;91.00
13707;DHT22;6925;47.816;13.072;2023-07-02T05:19:30;18.90;90.80
13707;DHT22;6925;47.816;13.072;2023-07-02T05:21:59;18.80;90.80
13707;DHT22;6925;47.816;13.072;2023-07-02T05:24:26;18.80;90.90
13707;DHT22;6925;47.816;13.072;2023-07-02T05:26:53;18.70;90.80
13707;DHT22;6925;47.816;13.072;2023-07-02T05:29:20;18.70;91.00
13707;DHT22;6925;47.816;13.072;2023-07-02T05:31:47;18.70;91.20
13707;DHT22;6925;47.816;13.072;2023-07-02T05:34:14;18.70;91.30
13707;DHT22;6925;47.816;13.072;2023-07-02T05:36:41;18.70;91.60
13707;DHT22;6925;47.816;13.072;2023-07-02T05:39:09;18.70;91.40
13707;DHT22;6925;47.816;13.072;2023-07-02T05:41:36;18.70;91.40
13707;DHT22;6925;47.816;13.072;2023-07-02T05:44:03;18.80;91.50
13707;DHT22;6925;47.816;13.072;2023-07-02T05:46:30;18.80;91.50
13707;DHT22;6925;47.816;13.072;2023-07-02T05:48:57;18.80;91.30
13707;DHT22;6925;47.816;13.072;2023-07-02T05:51:26;18.90;91.40
13707;DHT22;6925;47.816;13.072;2023-07-02T05:53:53;18.90;90.90
13707;DHT22;6925;47.816;13.072;2023-07-02T05:56:21;18.80;91.10
13707;DHT22;6925;47.816;13.072;2023-07-02T05:58:48;18.80;91.20
13707;DHT22;6925;47.816;13.072;2023-07-02T06:01:15;18.70;90.80
13707;DHT22;6925;47.816;13.072;2023-07-02T06:03:43;18.70;90.10
13707;DHT22;6925;47.816;13.072;2023-07-02T06:06:11;18.50;88.70
13707;DHT22;6925;47.816;13.072;2023-07-02T06:08:37;18.50;90.10
13707;DHT22;6925;47.816;13.072;2023-07-02T06:11:04;18.60;90.60
13707;DHT22;6925;47.816;13.072;2023-07-02T06:13:33;18.60;90.20
13707;DHT22;6925;47.816;13.072;2023-07-02T06:16:00;18.60;90.50
13707;DHT22;6925;47.816;13.072;2023-07-02T06:18:27;18.70;90.10
13707;DHT22;6925;47.816;13.072;2023-07-02T06:20:54;18.70;90.30
13707;DHT22;6925;47.816;13.072;2023-07-02T06:23:21;18.70;90.20
13707;DHT22;6925;47.816;13.072;2023-07-02T06:25:48;18.70;90.30
13707;DHT22;6925;47.816;13.072;2023-07-02T06:28:17;18.70;90.10
13707;DHT22;6925;47.816;13.072;2023-07-02T06:30:46;18.70;90.10
13707;DHT22;6925;47.816;13.072;2023-07-02T06:33:13;18.70;89.50
13707;DHT22;6925;47.816;13.072;2023-07-02T06:35:39;18.60;89.40
13707;DHT22;6925;47.816;13.072;2023-07-02T06:38:06;18.60;89.80
13707;DHT22;6925;47.816;13.072;2023-07-02T06:40:33;18.60;90.30
13707;DHT22;6925;47.816;13.072;2023-07-02T06:43:00;18.70;90.40
13707;DHT22;6925;47.816;13.072;2023-07-02T06:45:27;18.70;90.00
13707;DHT22;6925;47.816;13.072;2023-07-02T06:47:55;18.70;89.20
13707;DHT22;6925;47.816;13.072;2023-07-02T06:50:23;18.60;88.80
13707;DHT22;6925;47.816;13.072;2023-07-02T06:52:50;18.60;90.20
13707;DHT22;6925;47.816;13.072;2023-07-02T06:55:17;18.60;89.80
13707;DHT22;6925;47.816;13.072;2023-07-02T06:57:44;18.60;89.70
13707;DHT22;6925;47.816;13.072;2023-07-02T07:00:12;18.60;89.40
13707;DHT22;6925;47.816;13.072;2023-07-02T07:02:39;18.60;89.70
13707;DHT22;6925;47.816;13.072;2023-07-02T07:05:08;18.70;89.90
13707;DHT22;6925;47.816;13.072;2023-07-02T07:07:35;18.60;89.30
13707;DHT22;6925;47.816;13.072;2023-07-02T07:10:02;18.60;89.60
13707;DHT22;6925;47.816;13.072;2023-07-02T07:12:29;18.70;90.00
13707;DHT22;6925;47.816;13.072;2023-07-02T07:14:56;18.70;89.30
13707;DHT22;6925;47.816;13.072;2023-07-02T07:17:23;18.70;89.50
13707;DHT22;6925;47.816;13.072;2023-07-02T07:19:50;18.70;89.80
13707;DHT22;6925;47.816;13.072;2023-07-02T07:22:19;18.70;90.00
13707;DHT22;6925;47.816;13.072;2023-07-02T07:24:46;18.70;88.00
13707;DHT22;6925;47.816;13.072;2023-07-02T07:27:13;18.60;89.90
13707;DHT22;6925;47.816;13.072;2023-07-02T07:29:40;18.70;89.50
13707;DHT22;6925;47.816;13.072;2023-07-02T07:32:07;18.70;89.80
13707;DHT22;6925;47.816;13.072;2023-07-02T07:34:34;18.70;90.10
13707;DHT22;6925;47.816;13.072;2023-07-02T07:37:01;18.80;90.30
13707;DHT22;6925;47.816;13.072;2023-07-02T07:39:29;18.90;90.00
13707;DHT22;6925;47.816;13.072;2023-07-02T07:41:56;18.90;90.10
13707;DHT22;6925;47.816;13.072;2023-07-02T07:44:24;18.90;90.00
13707;DHT22;6925;47.816;13.072;2023-07-02T07:46:54;19.00;90.10
13707;DHT22;6925;47.816;13.072;2023-07-02T07:49:22;19.00;90.40
13707;DHT22;6925;47.816;13.072;2023-07-02T07:51:49;19.10;90.30
13707;DHT22;6925;47.816;13.072;2023-07-02T07:54:16;19.10;90.00
13707;DHT22;6925;47.816;13.072;2023-07-02T07:56:44;19.10;87.90
13707;DHT22;6925;47.816;13.072;2023-07-02T07:59:11;19.10;89.00
13707;DHT22;6925;47.816;13.072;2023-07-02T08:01:40;19.10;90.00
13707;DHT22;6925;47.816;13.072;2023-07-02T08:04:07;19.20;87.20
13707;DHT22;6925;47.816;13.072;2023-07-02T08:06:34;19.20;87.80
13707;DHT22;6925;47.816;13.072;2023-07-02T08:09:01;19.20;87.90
13707;DHT22;6925;47.816;13.072;2023-07-02T08:11:29;19.30;89.60
13707;DHT22;6925;47.816;13.072;2023-07-02T08:13:57;19.40;89.00
13707;DHT22;6925;47.816;13.072;2023-07-02T08:16:24;19.40;88.80
13707;DHT22;6925;47.816;13.072;2023-07-02T08:18:51;19.30;86.50
13707;DHT22;6925;47.816;13.072;2023-07-02T08:21:18;19.40;88.60
13707;DHT22;6925;47.816;13.072;2023-07-02T08:23:45;19.50;88.40
13707;DHT22;6925;47.816;13.072;2023-07-02T08:26:12;19.50;87.80
13707;DHT22;6925;47.816;13.072;2023-07-02T08:28:40;19.60;88.50
13707;DHT22;6925;47.816;13.072;2023-07-02T08:31:08;19.70;87.90
13707;DHT22;6925;47.816;13.072;2023-07-02T08:33:35;19.70;86.20
13707;DHT22;6925;47.816;13.072;2023-07-02T08:36:02;19.70;88.40
13707;DHT22;6925;47.816;13.072;2023-07-02T08:38:29;19.80;88.80
13707;DHT22;6925;47.816;13.072;2023-07-02T08:40:56;19.80;87.60
13707;DHT22;6925;47.816;13.072;2023-07-02T08:43:26;19.80;85.80
13707;DHT22;6925;47.816;13.072;2023-07-02T08:45:53;19.80;87.40
13707;DHT22;6925;47.816;13.072;2023-07-02T08:48:22;19.80;87.90
13707;DHT22;6925;47.816;13.072;2023-07-02T08:50:50;19.80;87.50
13707;DHT22;6925;47.816;13.072;2023-07-02T08:53:17;19.80;87.90
13707;DHT22;6925;47.816;13.072;2023-07-02T08:55:44;19.80;87.60
13707;DHT22;6925;47.816;13.072;2023-07-02T08:58:11;19.90;87.70
13707;DHT22;6925;47.816;13.072;2023-07-02T09:00:38;19.80;88.10
13707;DHT22;6925;47.816;13.072;2023-07-02T09:03:13;19.90;88.00
13707;DHT22;6925;47.816;13.072;2023-07-02T09:05:52;19.90;88.70
13707;DHT22;6925;47.816;13.072;2023-07-02T09:08:23;20.00;88.70
13707;DHT22;6925;47.816;13.072;2023-07-02T09:10:51;20.00;88.20
13707;DHT22;6925;47.816;13.072;2023-07-02T09:13:17;20.00;87.60
13707;DHT22;6925;47.816;13.072;2023-07-02T09:15:45;20.00;86.90
13707;DHT22;6925;47.816;13.072;2023-07-02T09:18:19;20.00;87.00
13707;DHT22;6925;47.816;13.072;2023-07-02T09:20:49;20.00;86.90
13707;DHT22;6925;47.816;13.072;2023-07-02T09:23:18;19.90;85.90
13707;DHT22;6925;47.816;13.072;2023-07-02T09:25:45;19.90;85.00
13707;DHT22;6925;47.816;13.072;2023-07-02T09:28:16;19.90;85.80
13707;DHT22;6925;47.816;13.072;2023-07-02T09:30:52;20.00;86.40
13707;DHT22;6925;47.816;13.072;2023-07-02T09:33:20;20.00;86.20
13707;DHT22;6925;47.816;13.072;2023-07-02T09:35:47;20.10;86.50
13707;DHT22;6925;47.816;13.072;2023-07-02T09:38:18;20.10;87.10
13707;DHT22;6925;47.816;13.072;2023-07-02T09:40:47;20.10;86.80
13707;DHT22;6925;47.816;13.072;2023-07-02T09:43:15;20.10;86.90
13707;DHT22;6925;47.816;13.072;2023-07-02T09:45:43;20.10;87.30
13707;DHT22;6925;47.816;13.072;2023-07-02T09:48:13;20.20;87.00
13707;DHT22;6925;47.816;13.072;2023-07-02T09:50:42;20.20;87.20
13707;DHT22;6925;47.816;13.072;2023-07-02T09:53:10;20.20;85.20
13707;DHT22;6925;47.816;13.072;2023-07-02T09:55:41;20.10;83.90
13707;DHT22;6925;47.816;13.072;2023-07-02T09:58:09;20.10;84.10
13707;DHT22;6925;47.816;13.072;2023-07-02T10:00:38;20.00;84.50
13707;DHT22;6925;47.816;13.072;2023-07-02T10:03:05;19.90;83.80
13707;DHT22;6925;47.816;13.072;2023-07-02T10:05:33;19.90;84.70
13707;DHT22;6925;47.816;13.072;2023-07-02T10:08:12;19.90;85.60
13707;DHT22;6925;47.816;13.072;2023-07-02T10:10:41;19.90;85.60
13707;DHT22;6925;47.816;13.072;2023-07-02T10:13:08;19.90;85.20
13707;DHT22;6925;47.816;13.072;2023-07-02T10:15:35;19.80;84.00
13707;DHT22;6925;47.816;13.072;2023-07-02T10:18:03;19.60;83.80
13707;DHT22;6925;47.816;13.072;2023-07-02T10:20:35;19.50;86.10
13707;DHT22;6925;47.816;13.072;2023-07-02T10:23:03;19.40;85.60
13707;DHT22;6925;47.816;13.072;2023-07-02T10:25:31;19.40;85.20
13707;DHT22;6925;47.816;13.072;2023-07-02T10:28:13;19.30;86.20
13707;DHT22;6925;47.816;13.072;2023-07-02T10:30:41;19.30;88.30
13707;DHT22;6925;47.816;13.072;2023-07-02T10:33:10;19.40;86.90
13707;DHT22;6925;47.816;13.072;2023-07-02T10:35:37;19.40;88.10
13707;DHT22;6925;47.816;13.072;2023-07-02T10:38:04;19.40;88.80
13707;DHT22;6925;47.816;13.072;2023-07-02T10:40:32;19.60;89.20
13707;DHT22;6925;47.816;13.072;2023-07-02T10:43:01;19.60;88.20
13707;DHT22;6925;47.816;13.072;2023-07-02T10:45:33;19.60;88.20
13707;DHT22;6925;47.816;13.072;2023-07-02T10:48:02;19.70;87.90
13707;DHT22;6925;47.816;13.072;2023-07-02T10:50:31;19.70;87.30
13707;DHT22;6925;47.816;13.072;2023-07-02T10:52:58;19.70;87.80
13707;DHT22;6925;47.816;13.072;2023-07-02T10:55:25;19.70;87.70
13707;DHT22;6925;47.816;13.072;2023-07-02T10:58:04;19.70;87.90
13707;DHT22;6925;47.816;13.072;2023-07-02T11:00:39;19.70;87.60
13707;DHT22;6925;47.816;13.072;2023-07-02T11:03:16;19.70;87.60
13707;DHT22;6925;47.816;13.072;2023-07-02T11:05:45;19.60;86.50
13707;DHT22;6925;47.816;13.072;2023-07-02T11:08:12;19.60;87.00
13707;DHT22;6925;47.816;13.072;2023-07-02T11:10:39;19.60;87.40
13707;DHT22;6925;47.816;13.072;2023-07-02T11:13:15;19.60;88.40
13707;DHT22;6925;47.816;13.072;2023-07-02T11:15:43;19.70;89.10
13707;DHT22;6925;47.816;13.072;2023-07-02T11:18:11;19.80;89.10
13707;DHT22;6925;47.816;13.072;2023-07-02T11:20:39;19.80;89.70
13707;DHT22;6925;47.816;13.072;2023-07-02T11:23:17;19.90;89.70
13707;DHT22;6925;47.816;13.072;2023-07-02T11:25:54;20.10;90.20
13707;DHT22;6925;47.816;13.072;2023-07-02T11:28:24;20.30;90.70
13707;DHT22;6925;47.816;13.072;2023-07-02T11:30:52;20.40;90.40
13707;DHT22;6925;47.816;13.072;2023-07-02T11:33:20;20.60;90.10
13707;DHT22;6925;47.816;13.072;2023-07-02T11:35:47;20.60;88.70
13707;DHT22;6925;47.816;13.072;2023-07-02T11:38:14;20.70;90.30
13707;DHT22;6925;47.816;13.072;2023-07-02T11:40:41;20.90;88.10
13707;DHT22;6925;47.816;13.072;2023-07-02T11:43:08;21.00;87.10
13707;DHT22;6925;47.816;13.072;2023-07-02T11:45:36;21.10;88.60
13707;DHT22;6925;47.816;13.072;2023-07-02T11:48:03;21.30;90.10
13707;DHT22;6925;47.816;13.072;2023-07-02T11:50:30;21.60;90.50
13707;DHT22;6925;47.816;13.072;2023-07-02T11:52:57;21.80;89.60
13707;DHT22;6925;47.816;13.072;2023-07-02T11:55:24;22.00;86.70
13707;DHT22;6925;47.816;13.072;2023-07-02T11:57:51;22.10;85.60
13707;DHT22;6925;47.816;13.072;2023-07-02T12:00:19;22.20;86.90
13707;DHT22;6925;47.816;13.072;2023-07-02T12:02:48;22.40;86.00
13707;DHT22;6925;47.816;13.072;2023-07-02T12:05:15;22.50;86.30
13707;DHT22;6925;47.816;13.072;2023-07-02T12:07:42;22.70;86.60
13707;DHT22;6925;47.816;13.072;2023-07-02T12:10:09;22.70;84.70
13707;DHT22;6925;47.816;13.072;2023-07-02T12:12:36;22.70;81.70
13707;DHT22;6925;47.816;13.072;2023-07-02T12:15:04;22.70;81.40
13707;DHT22;6925;47.816;13.072;2023-07-02T12:17:31;22.60;81.40
13707;DHT22;6925;47.816;13.072;2023-07-02T12:20:00;22.70;81.70
13707;DHT22;6925;47.816;13.072;2023-07-02T12:22:27;22.70;81.90
13707;DHT22;6925;47.816;13.072;2023-07-02T12:24:54;22.70;78.30
13707;DHT22;6925;47.816;13.072;2023-07-02T12:27:22;22.70;79.70
13707;DHT22;6925;47.816;13.072;2023-07-02T12:29:51;22.80;81.20
13707;DHT22;6925;47.816;13.072;2023-07-02T12:32:18;23.10;79.00
13707;DHT22;6925;47.816;13.072;2023-07-02T12:34:45;23.20;78.50
13707;DHT22;6925;47.816;13.072;2023-07-02T12:37:13;23.30;80.10
13707;DHT22;6925;47.816;13.072;2023-07-02T12:39:43;23.50;80.50
13707;DHT22;6925;47.816;13.072;2023-07-02T12:42:10;23.80;80.80
13707;DHT22;6925;47.816;13.072;2023-07-02T12:44:37;24.10;80.90
13707;DHT22;6925;47.816;13.072;2023-07-02T12:47:05;24.20;78.00
13707;DHT22;6925;47.816;13.072;2023-07-02T12:49:32;24.20;76.20
13707;DHT22;6925;47.816;13.072;2023-07-02T12:51:59;24.30;75.80
13707;DHT22;6925;47.816;13.072;2023-07-02T12:54:27;24.30;76.50
13707;DHT22;6925;47.816;13.072;2023-07-02T12:56:54;24.40;74.50
13707;DHT22;6925;47.816;13.072;2023-07-02T12:59:21;24.50;74.90
13707;DHT22;6925;47.816;13.072;2023-07-02T13:01:48;24.50;75.10
13707;DHT22;6925;47.816;13.072;2023-07-02T13:04:15;24.70;75.90
13707;DHT22;6925;47.816;13.072;2023-07-02T13:06:42;24.80;76.50
13707;DHT22;6925;47.816;13.072;2023-07-02T13:09:11;24.90;76.80
13707;DHT22;6925;47.816;13.072;2023-07-02T13:11:39;25.00;76.40
13707;DHT22;6925;47.816;13.072;2023-07-02T13:14:06;25.10;76.30
13707;DHT22;6925;47.816;13.072;2023-07-02T13:16:33;25.00;75.60
13707;DHT22;6925;47.816;13.072;2023-07-02T13:19:00;25.00;76.20
13707;DHT22;6925;47.816;13.072;2023-07-02T13:21:28;25.00;75.80
13707;DHT22;6925;47.816;13.072;2023-07-02T13:23:55;25.00;73.10
13707;DHT22;6925;47.816;13.072;2023-07-02T13:26:22;25.00;73.50
13707;DHT22;6925;47.816;13.072;2023-07-02T13:28:50;25.00;73.20
13707;DHT22;6925;47.816;13.072;2023-07-02T13:31:17;25.00;71.00
13707;DHT22;6925;47.816;13.072;2023-07-02T13:33:44;25.00;74.20
13707;DHT22;6925;47.816;13.072;2023-07-02T13:36:11;25.20;74.60
13707;DHT22;6925;47.816;13.072;2023-07-02T13:38:39;25.40;74.20
13707;DHT22;6925;47.816;13.072;2023-07-02T13:41:06;25.60;69.30
13707;DHT22;6925;47.816;13.072;2023-07-02T13:43:33;25.70;65.80
13707;DHT22;6925;47.816;13.072;2023-07-02T13:46:02;25.50;67.50
13707;DHT22;6925;47.816;13.072;2023-07-02T13:48:29;25.60;69.50
13707;DHT22;6925;47.816;13.072;2023-07-02T13:50:56;25.60;66.60
13707;DHT22;6925;47.816;13.072;2023-07-02T13:53:23;25.60;66.90
13707;DHT22;6925;47.816;13.072;2023-07-02T13:55:50;25.60;68.70
13707;DHT22;6925;47.816;13.072;2023-07-02T13:58:17;25.60;68.10
13707;DHT22;6925;47.816;13.072;2023-07-02T14:00:46;25.60;68.90
13707;DHT22;6925;47.816;13.072;2023-07-02T14:03:13;25.60;67.20
13707;DHT22;6925;47.816;13.072;2023-07-02T14:05:40;25.60;66.20
13707;DHT22;6925;47.816;13.072;2023-07-02T14:08:09;25.60;68.70
13707;DHT22;6925;47.816;13.072;2023-07-02T14:10:36;25.70;67.90
13707;DHT22;6925;47.816;13.072;2023-07-02T14:13:03;25.80;66.70
13707;DHT22;6925;47.816;13.072;2023-07-02T14:15:31;25.70;66.20
13707;DHT22;6925;47.816;13.072;2023-07-02T14:17:59;25.70;66.60
13707;DHT22;6925;47.816;13.072;2023-07-02T14:20:26;25.70;66.00
13707;DHT22;6925;47.816;13.072;2023-07-02T14:22:53;25.70;66.40
13707;DHT22;6925;47.816;13.072;2023-07-02T14:25:20;25.70;65.40
13707;DHT22;6925;47.816;13.072;2023-07-02T14:27:47;25.70;67.50
13707;DHT22;6925;47.816;13.072;2023-07-02T14:30:14;25.80;67.00
13707;DHT22;6925;47.816;13.072;2023-07-02T14:32:41;25.80;65.50
13707;DHT22;6925;47.816;13.072;2023-07-02T14:35:11;25.70;65.60
13707;DHT22;6925;47.816;13.072;2023-07-02T14:37:38;25.70;66.10
13707;DHT22;6925;47.816;13.072;2023-07-02T14:40:06;25.70;64.30
13707;DHT22;6925;47.816;13.072;2023-07-02T14:42:33;25.60;64.70
13707;DHT22;6925;47.816;13.072;2023-07-02T14:45:00;25.60;65.50
13707;DHT22;6925;47.816;13.072;2023-07-02T14:47:27;25.60;65.20
13707;DHT22;6925;47.816;13.072;2023-07-02T14:49:54;25.60;65.50
13707;DHT22;6925;47.816;13.072;2023-07-02T14:52:23;25.60;66.00
13707;DHT22;6925;47.816;13.072;2023-07-02T14:54:50;25.60;65.60
13707;DHT22;6925;47.816;13.072;2023-07-02T14:57:17;25.60;64.50
13707;DHT22;6925;47.816;13.072;2023-07-02T14:59:45;25.40;63.70
13707;DHT22;6925;47.816;13.072;2023-07-02T15:02:12;25.30;65.20
13707;DHT22;6925;47.816;13.072;2023-07-02T15:04:39;25.40;65.90
13707;DHT22;6925;47.816;13.072;2023-07-02T15:07:07;25.40;64.80
13707;DHT22;6925;47.816;13.072;2023-07-02T15:09:36;25.50;64.60
13707;DHT22;6925;47.816;13.072;2023-07-02T15:12:03;25.60;65.20
13707;DHT22;6925;47.816;13.072;2023-07-02T15:14:30;25.70;64.50
13707;DHT22;6925;47.816;13.072;2023-07-02T15:16:57;25.70;62.60
13707;DHT22;6925;47.816;13.072;2023-07-02T15:19:24;25.60;62.70
13707;DHT22;6925;47.816;13.072;2023-07-02T15:21:51;25.50;63.30
13707;DHT22;6925;47.816;13.072;2023-07-02T15:24:18;25.50;62.80
13707;DHT22;6925;47.816;13.072;2023-07-02T15:26:47;25.40;61.50
13707;DHT22;6925;47.816;13.072;2023-07-02T15:29:14;25.30;63.00
13707;DHT22;6925;47.816;13.072;2023-07-02T15:31:41;25.30;63.10
13707;DHT22;6925;47.816;13.072;2023-07-02T15:34:11;25.30;63.00